Time;durP1;ratioP1;P1;durP2;ratioP2;P2;SDS_P1;SDS_P2;PMS_P1;PMS_P2;Temp;Humidity;BMP_temperature;BMP_pressure;BME280_temperature;BME280_humidity;BME280_pressure;Samples;Min_cycle;Max_cycle;Signal;HPM_P1;HPM_P2
2023/04/30 00:01:54;;;;;;;;;;;11.60;99.90;;;;;;4954067;29;19921;-73
2023/04/30 00:04:20;;;;;;;;;;;11.60;99.90;;;;;;4937889;29;19946;-81
2023/04/30 00:06:45;;;;;;;;;;;11.60;99.90;;;;;;4955100;29;19914;-72
2023/04/30 00:09:11;;;;;;;;;;;11.60;99.90;;;;;;4955820;29;19976;-72
2023/04/30 00:11:36;;;;;;;;;;;11.60;99.90;;;;;;4944426;29;19910;-72
2023/04/30 00:14:02;;;;;;;;;;;11.60;99.90;;;;;;4956363;29;20355;-72
2023/04/30 00:16:27;;;;;;;;;;;11.60;99.90;;;;;;4953019;28;19910;-72
2023/04/30 00:18:53;;;;;;;;;;;11.50;99.90;;;;;;4956261;29;19933;-72
2023/04/30 00:21:18;;;;;;;;;;;11.60;99.90;;;;;;4954064;28;19956;-73
2023/04/30 00:23:44;;;;;;;;;;;11.60;99.90;;;;;;4952832;28;19910;-72
2023/04/30 00:26:09;;;;;;;;;;;11.60;99.90;;;;;;4955757;29;19917;-73
2023/04/30 00:28:35;;;;;;;;;;;11.50;99.90;;;;;;4954417;29;19918;-72
2023/04/30 00:31:00;;;;;;;;;;;11.50;99.90;;;;;;4955623;29;19917;-72
2023/04/30 00:33:25;;;;;;;;;;;11.50;99.90;;;;;;4954843;29;19910;-72
2023/04/30 00:35:51;;;;;;;;;;;11.40;99.90;;;;;;4955448;29;20070;-72
2023/04/30 00:38:16;;;;;;;;;;;11.40;99.90;;;;;;4950239;28;19940;-72
2023/04/30 00:40:42;;;;;;;;;;;11.40;99.90;;;;;;4961690;28;19975;-72
2023/04/30 00:43:08;;;;;;;;;;;11.40;99.90;;;;;;4954921;29;20096;-72
2023/04/30 00:45:33;;;;;;;;;;;11.40;99.90;;;;;;4954508;29;20323;-72
2023/04/30 00:47:59;;;;;;;;;;;11.40;99.90;;;;;;4954969;29;19917;-72
2023/04/30 00:50:24;;;;;;;;;;;11.40;99.90;;;;;;4954758;29;19945;-73
2023/04/30 00:52:50;;;;;;;;;;;11.30;99.90;;;;;;4954987;29;19926;-73
2023/04/30 00:55:15;;;;;;;;;;;11.30;99.90;;;;;;4949620;28;19917;-71
2023/04/30 00:57:41;;;;;;;;;;;11.30;99.90;;;;;;4953517;29;19910;-72
2023/04/30 01:00:09;;;;;;;;;;;11.30;99.90;;;;;;4953269;29;19910;-72
2023/04/30 01:02:38;;;;;;;;;;;11.30;99.90;;;;;;4950688;29;19917;-72
2023/04/30 01:05:04;;;;;;;;;;;11.30;99.90;;;;;;4946998;29;19922;-72
2023/04/30 01:07:30;;;;;;;;;;;11.30;99.90;;;;;;4953597;29;19918;-72
2023/04/30 01:09:56;;;;;;;;;;;11.30;99.90;;;;;;4954714;29;19918;-71
2023/04/30 01:12:21;;;;;;;;;;;11.20;99.90;;;;;;4934086;29;20356;-81
2023/04/30 01:14:47;;;;;;;;;;;11.30;99.90;;;;;;4951421;29;19918;-75
2023/04/30 01:17:36;;;;;;;;;;;11.30;99.90;;;;;;4953821;29;20004;-74
2023/04/30 01:20:03;;;;;;;;;;;11.30;99.90;;;;;;4954493;29;19910;-72
2023/04/30 01:22:37;;;;;;;;;;;11.30;99.90;;;;;;4952877;29;19973;-73
2023/04/30 01:25:20;;;;;;;;;;;11.30;99.90;;;;;;4954427;29;19921;-74
2023/04/30 01:27:57;;;;;;;;;;;11.40;99.90;;;;;;4953624;28;19910;-73
2023/04/30 01:30:24;;;;;;;;;;;11.30;99.90;;;;;;4949422;29;20450;-81
2023/04/30 01:32:49;;;;;;;;;;;11.30;99.90;;;;;;4953680;29;19917;-72
2023/04/30 01:35:15;;;;;;;;;;;11.30;99.90;;;;;;4954173;29;19997;-73
2023/04/30 01:37:51;;;;;;;;;;;11.20;99.90;;;;;;4952749;29;19914;-74
2023/04/30 01:40:20;;;;;;;;;;;11.30;99.90;;;;;;4951881;29;19917;-73
2023/04/30 01:42:54;;;;;;;;;;;11.30;99.90;;;;;;4953068;29;19910;-73
2023/04/30 01:45:38;;;;;;;;;;;11.30;99.90;;;;;;4953436;29;19940;-80
2023/04/30 01:48:13;;;;;;;;;;;11.30;99.90;;;;;;4953668;29;19946;-74
2023/04/30 01:50:46;;;;;;;;;;;11.30;99.90;;;;;;4930677;29;19917;-73
2023/04/30 01:53:20;;;;;;;;;;;11.30;99.90;;;;;;4953871;29;20240;-73
2023/04/30 01:55:56;;;;;;;;;;;11.20;99.90;;;;;;4936523;29;20274;-74
2023/04/30 01:58:23;;;;;;;;;;;11.10;99.90;;;;;;4953007;29;19914;-82
2023/04/30 02:00:48;;;;;;;;;;;11.00;99.90;;;;;;4953729;29;20379;-73
2023/04/30 02:03:14;;;;;;;;;;;10.90;99.90;;;;;;4952803;28;19914;-73
2023/04/30 02:05:39;;;;;;;;;;;11.00;99.90;;;;;;4953633;29;19910;-73
2023/04/30 02:08:05;;;;;;;;;;;11.00;99.90;;;;;;4953488;29;19911;-73
2023/04/30 02:10:30;;;;;;;;;;;11.00;99.90;;;;;;4948342;28;20038;-73
2023/04/30 02:12:56;;;;;;;;;;;11.00;99.90;;;;;;4953166;29;19914;-73
2023/04/30 02:15:22;;;;;;;;;;;11.00;99.90;;;;;;4953686;29;19917;-81
2023/04/30 02:17:47;;;;;;;;;;;11.00;99.90;;;;;;4952921;29;19914;-72
2023/04/30 02:20:13;;;;;;;;;;;11.00;99.90;;;;;;4954009;29;20358;-73
2023/04/30 02:22:38;;;;;;;;;;;10.90;99.90;;;;;;4952747;29;20276;-73
2023/04/30 02:25:04;;;;;;;;;;;10.80;99.90;;;;;;4953944;29;20267;-72
2023/04/30 02:27:30;;;;;;;;;;;10.80;99.90;;;;;;4933919;28;19938;-72
2023/04/30 02:29:56;;;;;;;;;;;10.70;99.90;;;;;;4957339;28;19918;-72
2023/04/30 02:32:22;;;;;;;;;;;;;;;;;;4952699;29;20344;-81
2023/04/30 02:34:47;;;;;;;;;;;;;;;;;;4953890;29;20267;-72
2023/04/30 02:37:13;;;;;;;;;;;;;;;;;;4952959;29;19917;-72
2023/04/30 02:39:40;;;;;;;;;;;;;;;;;;4952587;29;19966;-72
2023/04/30 02:42:06;;;;;;;;;;;;;;;;;;4953347;29;19911;-72
2023/04/30 02:44:32;;;;;;;;;;;10.70;99.90;;;;;;4953049;28;19910;-75
2023/04/30 02:46:57;;;;;;;;;;;10.80;99.90;;;;;;4952801;29;20419;-72
2023/04/30 02:49:23;;;;;;;;;;;10.70;99.90;;;;;;4952627;29;20001;-83
2023/04/30 02:51:48;;;;;;;;;;;10.40;99.90;;;;;;4953535;29;19980;-72
2023/04/30 02:54:14;;;;;;;;;;;10.60;99.90;;;;;;4953451;29;19977;-73
2023/04/30 02:56:40;;;;;;;;;;;10.60;99.90;;;;;;4952253;29;19922;-72
2023/04/30 02:59:07;;;;;;;;;;;;;;;;;;4953560;29;19935;-72
2023/04/30 03:01:32;;;;;;;;;;;10.30;99.90;;;;;;4945100;28;19950;-72
2023/04/30 03:03:58;;;;;;;;;;;10.30;99.90;;;;;;4936064;29;20016;-72
2023/04/30 03:06:23;;;;;;;;;;;10.40;99.90;;;;;;4951961;29;20382;-83
2023/04/30 03:08:49;;;;;;;;;;;10.30;99.90;;;;;;4952965;29;19918;-72
2023/04/30 03:11:15;;;;;;;;;;;10.30;99.90;;;;;;4953057;29;19910;-72
2023/04/30 03:13:42;;;;;;;;;;;10.30;99.90;;;;;;4951564;29;20483;-72
2023/04/30 03:16:07;;;;;;;;;;;10.20;99.90;;;;;;4953385;29;19962;-72
2023/04/30 03:18:33;;;;;;;;;;;10.20;99.90;;;;;;4937880;28;19911;-72
2023/04/30 03:20:58;;;;;;;;;;;10.20;99.90;;;;;;4951459;29;19906;-71
2023/04/30 03:23:26;;;;;;;;;;;10.20;99.90;;;;;;4947181;29;19911;-79
2023/04/30 03:25:51;;;;;;;;;;;10.10;99.90;;;;;;4943275;29;19914;-72
2023/04/30 03:28:17;;;;;;;;;;;10.10;99.90;;;;;;4952233;29;19921;-78
2023/04/30 03:30:43;;;;;;;;;;;10.10;99.90;;;;;;4952529;29;20038;-70
2023/04/30 03:33:08;;;;;;;;;;;10.10;99.90;;;;;;4935020;29;19906;-73
2023/04/30 03:35:34;;;;;;;;;;;10.10;99.90;;;;;;4952364;29;19907;-72
2023/04/30 03:38:00;;;;;;;;;;;10.00;99.90;;;;;;4951250;29;19917;-72
2023/04/30 03:40:25;;;;;;;;;;;10.00;99.90;;;;;;4952437;29;19914;-72
2023/04/30 03:42:51;;;;;;;;;;;10.00;99.90;;;;;;4952554;29;19997;-72
2023/04/30 03:45:16;;;;;;;;;;;9.90;99.90;;;;;;4953302;29;19914;-73
2023/04/30 03:47:42;;;;;;;;;;;9.90;99.90;;;;;;4951451;29;19921;-73
2023/04/30 03:50:08;;;;;;;;;;;9.90;99.90;;;;;;4952636;28;20376;-72
2023/04/30 03:52:35;;;;;;;;;;;9.80;99.90;;;;;;4954569;29;20342;-72
2023/04/30 03:55:01;;;;;;;;;;;9.80;99.90;;;;;;4956527;29;20004;-72
2023/04/30 03:57:26;;;;;;;;;;;9.80;99.90;;;;;;4954814;29;19957;-73
2023/04/30 03:59:52;;;;;;;;;;;9.90;99.90;;;;;;4956307;29;20308;-73
2023/04/30 04:02:18;;;;;;;;;;;9.90;99.90;;;;;;4955478;29;20261;-74
2023/04/30 04:04:43;;;;;;;;;;;9.90;99.90;;;;;;4955693;29;19918;-72
2023/04/30 04:07:10;;;;;;;;;;;9.90;99.90;;;;;;4955748;29;20284;-73
2023/04/30 04:09:35;;;;;;;;;;;9.90;99.90;;;;;;4956994;29;19969;-72
2023/04/30 04:12:01;;;;;;;;;;;9.90;99.90;;;;;;4952835;29;19915;-72
2023/04/30 04:14:27;;;;;;;;;;;9.80;99.90;;;;;;4955712;29;19965;-72
2023/04/30 04:16:52;;;;;;;;;;;9.80;99.90;;;;;;4957711;29;20419;-72
2023/04/30 04:19:18;;;;;;;;;;;9.80;99.90;;;;;;4957691;29;19911;-73
2023/04/30 04:21:44;;;;;;;;;;;9.80;99.90;;;;;;4957520;29;19906;-72
2023/04/30 04:24:09;;;;;;;;;;;9.80;99.90;;;;;;4957319;29;20001;-72
2023/04/30 04:26:36;;;;;;;;;;;9.80;99.90;;;;;;4956721;29;19949;-72
2023/04/30 04:29:02;;;;;;;;;;;9.90;99.90;;;;;;4957523;29;19915;-72
2023/04/30 04:31:28;;;;;;;;;;;9.90;99.90;;;;;;4957706;29;20000;-73
2023/04/30 04:33:57;;;;;;;;;;;9.90;99.90;;;;;;4957573;29;19942;-72
2023/04/30 04:36:23;;;;;;;;;;;9.90;99.90;;;;;;4956276;29;19937;-73
2023/04/30 04:38:49;;;;;;;;;;;9.90;99.90;;;;;;4957440;29;20005;-72
2023/04/30 04:41:14;;;;;;;;;;;9.90;99.90;;;;;;4957486;29;20360;-72
2023/04/30 04:43:40;;;;;;;;;;;10.00;99.90;;;;;;4957201;29;19925;-72
2023/04/30 04:46:07;;;;;;;;;;;10.00;99.90;;;;;;4956422;29;20008;-72
2023/04/30 04:48:33;;;;;;;;;;;10.00;99.90;;;;;;4955510;29;19922;-72
2023/04/30 04:50:58;;;;;;;;;;;10.00;99.90;;;;;;4956591;29;19973;-72
2023/04/30 04:53:24;;;;;;;;;;;10.00;99.90;;;;;;4937796;28;20054;-78
2023/04/30 04:55:49;;;;;;;;;;;10.00;99.90;;;;;;4951853;28;19946;-72
2023/04/30 04:58:15;;;;;;;;;;;10.10;99.90;;;;;;4938137;29;20005;-72
2023/04/30 05:00:40;;;;;;;;;;;10.10;99.90;;;;;;4956176;29;20336;-73
2023/04/30 05:03:06;;;;;;;;;;;10.10;99.90;;;;;;4955064;28;19911;-73
2023/04/30 05:05:31;;;;;;;;;;;10.20;99.90;;;;;;4953753;28;20312;-73
2023/04/30 05:07:57;;;;;;;;;;;10.20;99.90;;;;;;4951905;28;19910;-72
2023/04/30 05:10:22;;;;;;;;;;;10.20;99.90;;;;;;4954083;29;20379;-78
2023/04/30 05:12:48;;;;;;;;;;;10.20;99.90;;;;;;4953416;29;19911;-72
2023/04/30 05:15:13;;;;;;;;;;;10.30;99.90;;;;;;4955603;29;19910;-72
2023/04/30 05:17:39;;;;;;;;;;;10.30;99.90;;;;;;4954703;29;19918;-72
2023/04/30 05:20:06;;;;;;;;;;;10.40;99.90;;;;;;4955247;29;20336;-72
2023/04/30 05:22:32;;;;;;;;;;;10.40;99.90;;;;;;4952737;28;19936;-73
2023/04/30 05:24:57;;;;;;;;;;;10.40;99.90;;;;;;4951880;28;19915;-72
2023/04/30 05:27:23;;;;;;;;;;;10.50;99.90;;;;;;4954696;29;20426;-78
2023/04/30 05:29:48;;;;;;;;;;;10.60;99.90;;;;;;4956064;29;19921;-72
2023/04/30 05:32:14;;;;;;;;;;;10.70;99.90;;;;;;4954761;29;19911;-72
2023/04/30 05:34:39;;;;;;;;;;;10.70;99.90;;;;;;4954715;29;20082;-74
2023/04/30 05:37:05;;;;;;;;;;;10.80;99.90;;;;;;4955155;29;19965;-72
2023/04/30 05:39:30;;;;;;;;;;;10.90;99.90;;;;;;4954255;29;19911;-73
2023/04/30 05:41:56;;;;;;;;;;;11.10;99.90;;;;;;4954637;29;19993;-72
2023/04/30 05:44:21;;;;;;;;;;;11.20;99.90;;;;;;4953884;29;20343;-80
2023/04/30 05:46:47;;;;;;;;;;;11.30;99.90;;;;;;4953683;29;19911;-73
2023/04/30 05:49:12;;;;;;;;;;;11.50;99.90;;;;;;4953908;29;19922;-73
2023/04/30 05:51:38;;;;;;;;;;;11.60;99.90;;;;;;4954005;29;19918;-72
2023/04/30 05:54:03;;;;;;;;;;;11.50;99.90;;;;;;4965024;29;19911;-77
2023/04/30 05:56:28;;;;;;;;;;;11.60;99.90;;;;;;4963254;29;19910;-72
2023/04/30 05:58:54;;;;;;;;;;;11.60;99.90;;;;;;4959215;29;19921;-79
2023/04/30 06:01:20;;;;;;;;;;;11.60;99.90;;;;;;4967507;29;19918;-84
2023/04/30 06:03:45;;;;;;;;;;;11.70;99.90;;;;;;4960873;29;19922;-72
2023/04/30 06:06:11;;;;;;;;;;;11.80;99.90;;;;;;4951176;29;19921;-73
2023/04/30 06:08:36;;;;;;;;;;;12.00;99.90;;;;;;4950384;29;19926;-73
2023/04/30 06:11:03;;;;;;;;;;;12.00;99.90;;;;;;4950445;29;19942;-72
2023/04/30 06:13:30;;;;;;;;;;;12.10;99.90;;;;;;4947813;28;19997;-71
2023/04/30 06:15:56;;;;;;;;;;;12.10;99.90;;;;;;4947884;29;19911;-72
2023/04/30 06:18:21;;;;;;;;;;;12.20;99.90;;;;;;4950756;29;19917;-83
2023/04/30 06:20:47;;;;;;;;;;;12.30;99.90;;;;;;4955893;29;20256;-76
2023/04/30 06:23:12;;;;;;;;;;;12.30;99.90;;;;;;4949464;28;19914;-76
2023/04/30 06:25:38;;;;;;;;;;;12.30;99.90;;;;;;4949598;29;19956;-74
2023/04/30 06:28:03;;;;;;;;;;;12.40;99.90;;;;;;4958073;29;19911;-75
2023/04/30 06:30:30;;;;;;;;;;;12.60;99.90;;;;;;4953225;29;19973;-72
2023/04/30 06:32:56;;;;;;;;;;;12.60;99.90;;;;;;4949191;29;19989;-72
2023/04/30 06:35:21;;;;;;;;;;;12.70;99.90;;;;;;4951290;29;20334;-78
2023/04/30 06:37:47;;;;;;;;;;;12.80;99.90;;;;;;4952359;28;19965;-73
2023/04/30 06:40:12;;;;;;;;;;;12.90;99.90;;;;;;4952727;29;19993;-72
2023/04/30 06:42:38;;;;;;;;;;;12.90;99.90;;;;;;4951363;29;19919;-74
2023/04/30 06:45:05;;;;;;;;;;;13.00;99.90;;;;;;4952993;29;19958;-79
2023/04/30 06:47:35;;;;;;;;;;;13.00;99.90;;;;;;4951333;29;20378;-72
2023/04/30 06:50:00;;;;;;;;;;;13.00;99.90;;;;;;4952768;29;19919;-75
2023/04/30 06:52:26;;;;;;;;;;;13.10;99.90;;;;;;4950246;29;19945;-74
2023/04/30 06:54:52;;;;;;;;;;;13.10;99.90;;;;;;4945346;28;19915;-75
2023/04/30 06:57:17;;;;;;;;;;;13.20;99.90;;;;;;4950435;29;19911;-73
2023/04/30 06:59:43;;;;;;;;;;;13.40;99.90;;;;;;4945196;29;19917;-76
2023/04/30 07:02:09;;;;;;;;;;;13.40;99.90;;;;;;4942957;29;20387;-78
2023/04/30 07:04:34;;;;;;;;;;;13.50;99.90;;;;;;4948986;29;19991;-74
2023/04/30 07:07:01;;;;;;;;;;;13.50;99.90;;;;;;4946489;29;20017;-73
2023/04/30 07:09:27;;;;;;;;;;;13.60;99.90;;;;;;4947774;29;19933;-75
2023/04/30 07:11:53;;;;;;;;;;;13.60;99.90;;;;;;4948859;29;19918;-74
2023/04/30 07:14:18;;;;;;;;;;;13.70;99.90;;;;;;4913456;29;20006;-74
2023/04/30 07:16:44;;;;;;;;;;;13.70;99.90;;;;;;4946927;29;20021;-73
2023/04/30 07:19:09;;;;;;;;;;;13.60;99.90;;;;;;4942379;29;20254;-74
2023/04/30 07:21:35;;;;;;;;;;;13.60;99.90;;;;;;4947172;29;19985;-72
2023/04/30 07:24:00;;;;;;;;;;;13.60;99.90;;;;;;4949651;29;19918;-73
2023/04/30 07:26:26;;;;;;;;;;;13.50;99.90;;;;;;4945785;28;20399;-76
2023/04/30 07:28:51;;;;;;;;;;;13.60;99.90;;;;;;4953117;29;20461;-73
2023/04/30 07:31:18;;;;;;;;;;;13.60;99.90;;;;;;4953145;29;19910;-72
2023/04/30 07:33:43;;;;;;;;;;;13.70;99.90;;;;;;4954479;29;20493;-74
2023/04/30 07:36:09;;;;;;;;;;;13.70;99.90;;;;;;4954438;29;19911;-74
2023/04/30 07:38:36;;;;;;;;;;;13.90;99.90;;;;;;4955350;29;19910;-74
2023/04/30 07:41:02;;;;;;;;;;;14.00;99.90;;;;;;4939825;29;19910;-79
2023/04/30 07:43:28;;;;;;;;;;;14.10;99.90;;;;;;4953662;29;20272;-75
2023/04/30 07:45:53;;;;;;;;;;;14.20;99.90;;;;;;4952107;29;20447;-76
2023/04/30 07:48:20;;;;;;;;;;;14.30;99.90;;;;;;4952645;29;20001;-77
2023/04/30 07:50:48;;;;;;;;;;;14.30;99.90;;;;;;4952324;29;19914;-75
2023/04/30 07:53:14;;;;;;;;;;;14.40;99.90;;;;;;4953411;29;19973;-75
2023/04/30 07:55:40;;;;;;;;;;;14.50;99.90;;;;;;4949505;29;20797;-74
2023/04/30 07:58:05;;;;;;;;;;;14.60;99.90;;;;;;4952059;29;19927;-73
2023/04/30 08:00:31;;;;;;;;;;;14.70;99.90;;;;;;4949373;29;19949;-74
2023/04/30 08:02:57;;;;;;;;;;;14.60;99.90;;;;;;4954997;29;19940;-74
2023/04/30 08:05:22;;;;;;;;;;;14.50;99.90;;;;;;4954520;29;20064;-76
2023/04/30 08:07:48;;;;;;;;;;;14.50;99.90;;;;;;4955351;29;20001;-73
2023/04/30 08:10:13;;;;;;;;;;;14.50;99.90;;;;;;4955015;29;20257;-75
2023/04/30 08:12:39;;;;;;;;;;;14.60;99.90;;;;;;4947978;28;19917;-73
2023/04/30 08:15:06;;;;;;;;;;;14.70;99.90;;;;;;4955392;29;20481;-75
2023/04/30 08:17:32;;;;;;;;;;;14.90;99.90;;;;;;4954090;29;20379;-73
2023/04/30 08:19:57;;;;;;;;;;;14.90;99.90;;;;;;4955301;29;19911;-74
2023/04/30 08:22:23;;;;;;;;;;;15.00;99.90;;;;;;4953254;29;19921;-77
2023/04/30 08:24:48;;;;;;;;;;;15.10;99.90;;;;;;4955313;29;19910;-74
2023/04/30 08:27:14;;;;;;;;;;;15.10;99.90;;;;;;4950809;28;19922;-73
2023/04/30 08:29:40;;;;;;;;;;;15.30;99.90;;;;;;4946567;29;19918;-73
2023/04/30 08:32:05;;;;;;;;;;;15.30;99.90;;;;;;4955171;29;20270;-76
2023/04/30 08:34:31;;;;;;;;;;;15.20;99.90;;;;;;4954184;29;19916;-73
2023/04/30 08:36:57;;;;;;;;;;;15.30;99.90;;;;;;4953023;28;19916;-73
2023/04/30 08:39:23;;;;;;;;;;;15.30;99.90;;;;;;4953910;29;20445;-78
2023/04/30 08:42:01;;;;;;;;;;;15.60;99.90;;;;;;4954637;29;19946;-72
2023/04/30 08:44:26;;;;;;;;;;;15.70;99.90;;;;;;4948582;28;20637;-73
2023/04/30 08:46:53;;;;;;;;;;;15.80;99.90;;;;;;4953521;29;19918;-73
2023/04/30 08:49:18;;;;;;;;;;;15.80;99.90;;;;;;4952698;29;19926;-73
2023/04/30 08:51:45;;;;;;;;;;;15.90;99.90;;;;;;4950851;29;20100;-72
2023/04/30 08:54:11;;;;;;;;;;;15.90;99.90;;;;;;4953102;29;20430;-74
2023/04/30 08:56:37;;;;;;;;;;;15.90;99.90;;;;;;4952688;29;20407;-73
2023/04/30 08:59:02;;;;;;;;;;;15.90;99.90;;;;;;4955316;29;20004;-73
2023/04/30 09:01:28;;;;;;;;;;;16.10;99.50;;;;;;4947567;28;20009;-73
2023/04/30 09:03:54;;;;;;;;;;;16.20;99.10;;;;;;4954082;28;19919;-72
2023/04/30 09:06:19;;;;;;;;;;;16.40;99.00;;;;;;4953304;29;19918;-75
2023/04/30 09:08:46;;;;;;;;;;;16.50;98.60;;;;;;4953161;29;20435;-73
2023/04/30 09:11:21;;;;;;;;;;;16.70;98.20;;;;;;4948222;29;20647;-73
2023/04/30 09:13:48;;;;;;;;;;;16.80;97.80;;;;;;4953706;29;19946;-73
2023/04/30 09:16:14;;;;;;;;;;;17.20;97.10;;;;;;4953885;29;19917;-73
2023/04/30 09:18:40;;;;;;;;;;;17.40;96.00;;;;;;4947181;28;19910;-74
2023/04/30 09:21:07;;;;;;;;;;;17.50;95.50;;;;;;4947316;29;19911;-75
2023/04/30 09:23:33;;;;;;;;;;;17.50;95.80;;;;;;4949896;29;20049;-74
2023/04/30 09:25:59;;;;;;;;;;;17.50;95.50;;;;;;4952112;29;20009;-74
2023/04/30 09:28:27;;;;;;;;;;;17.60;94.70;;;;;;4952299;29;19970;-73
2023/04/30 09:30:54;;;;;;;;;;;17.70;94.10;;;;;;4953417;29;19918;-72
2023/04/30 09:33:20;;;;;;;;;;;17.70;93.60;;;;;;4947645;29;19910;-76
2023/04/30 09:35:45;;;;;;;;;;;17.70;93.70;;;;;;4951971;29;19925;-72
2023/04/30 09:38:44;;;;;;;;;;;17.70;93.20;;;;;;4947649;29;20054;-72
2023/04/30 09:41:23;;;;;;;;;;;17.70;92.70;;;;;;4910758;29;19910;-73
2023/04/30 09:43:49;;;;;;;;;;;17.70;92.40;;;;;;4952735;29;19910;-71
2023/04/30 09:46:17;;;;;;;;;;;17.60;92.60;;;;;;4953149;29;19933;-71
2023/04/30 09:48:43;;;;;;;;;;;17.70;92.20;;;;;;4951442;28;20738;-75
2023/04/30 09:51:09;;;;;;;;;;;17.60;91.90;;;;;;4952978;29;20280;-74
2023/04/30 09:53:37;;;;;;;;;;;17.50;91.20;;;;;;4953993;29;19910;-72
2023/04/30 09:56:05;;;;;;;;;;;17.40;91.60;;;;;;4952977;29;20291;-72
2023/04/30 09:58:34;;;;;;;;;;;17.40;91.60;;;;;;4951858;29;19910;-72
2023/04/30 10:01:01;;;;;;;;;;;17.40;91.40;;;;;;4953029;29;19918;-71
2023/04/30 10:03:27;;;;;;;;;;;17.50;91.00;;;;;;4951632;29;19941;-74
2023/04/30 10:05:54;;;;;;;;;;;17.50;91.00;;;;;;4952507;29;19918;-74
2023/04/30 10:08:27;;;;;;;;;;;17.60;90.40;;;;;;4952264;29;19910;-83
2023/04/30 10:11:03;;;;;;;;;;;17.60;90.50;;;;;;4935532;29;20402;-74
2023/04/30 10:13:39;;;;;;;;;;;17.60;90.90;;;;;;4951084;29;20025;-75
2023/04/30 10:16:18;;;;;;;;;;;17.80;89.70;;;;;;4952644;29;20000;-77
2023/04/30 10:18:45;;;;;;;;;;;17.80;90.40;;;;;;4951752;29;20639;-78
2023/04/30 10:21:12;;;;;;;;;;;17.90;89.90;;;;;;4952752;29;19918;-74
2023/04/30 10:23:38;;;;;;;;;;;18.00;89.80;;;;;;4949217;29;19910;-75
2023/04/30 10:26:04;;;;;;;;;;;18.00;88.30;;;;;;4935715;29;19918;-74
2023/04/30 10:28:31;;;;;;;;;;;17.70;88.90;;;;;;4951318;29;19910;-75
2023/04/30 10:30:57;;;;;;;;;;;17.50;89.10;;;;;;4953861;29;19915;-81
2023/04/30 10:33:33;;;;;;;;;;;17.40;89.40;;;;;;4952180;29;19938;-77
2023/04/30 10:36:00;;;;;;;;;;;17.30;88.60;;;;;;4945376;28;19915;-73
2023/04/30 10:38:27;;;;;;;;;;;17.40;89.60;;;;;;4951978;28;19945;-73
2023/04/30 10:40:57;;;;;;;;;;;17.50;90.00;;;;;;4952877;29;19918;-74
2023/04/30 10:43:24;;;;;;;;;;;17.60;90.10;;;;;;4944032;29;19920;-79
2023/04/30 10:45:49;;;;;;;;;;;17.60;90.40;;;;;;4952988;29;19910;-72
2023/04/30 10:48:22;;;;;;;;;;;17.50;90.30;;;;;;4952386;29;19944;-70
2023/04/30 10:50:49;;;;;;;;;;;17.40;89.60;;;;;;4953041;29;19933;-73
2023/04/30 10:53:17;;;;;;;;;;;17.30;90.00;;;;;;4953220;28;20006;-71
2023/04/30 10:55:47;;;;;;;;;;;17.40;90.40;;;;;;4951793;29;20006;-72
2023/04/30 10:58:30;;;;;;;;;;;17.60;89.20;;;;;;4952790;29;20332;-71
2023/04/30 11:01:01;;;;;;;;;;;17.60;90.00;;;;;;4956922;28;19957;-73
2023/04/30 11:03:27;;;;;;;;;;;17.70;89.20;;;;;;4957104;28;19961;-73
2023/04/30 11:05:53;;;;;;;;;;;17.70;89.10;;;;;;4958948;28;19918;-74
2023/04/30 11:08:20;;;;;;;;;;;17.70;89.60;;;;;;4952832;28;19925;-74
2023/04/30 11:10:59;;;;;;;;;;;17.80;88.60;;;;;;4954412;29;19914;-74
2023/04/30 11:13:25;;;;;;;;;;;17.90;89.90;;;;;;4957159;29;20006;-76
2023/04/30 11:15:51;;;;;;;;;;;17.90;89.00;;;;;;4958628;28;19922;-72
2023/04/30 11:18:17;;;;;;;;;;;17.90;88.40;;;;;;4957670;28;19910;-72
2023/04/30 11:20:49;;;;;;;;;;;18.00;87.50;;;;;;4958967;28;19999;-73
2023/04/30 11:23:16;;;;;;;;;;;18.10;87.20;;;;;;4959032;29;20005;-71
2023/04/30 11:25:43;;;;;;;;;;;18.20;85.50;;;;;;4958577;28;20509;-72
2023/04/30 11:28:12;;;;;;;;;;;18.20;85.80;;;;;;4958659;29;19906;-71
2023/04/30 11:30:38;;;;;;;;;;;18.20;86.00;;;;;;4959437;29;19921;-72
2023/04/30 11:33:04;;;;;;;;;;;18.20;86.40;;;;;;4959356;28;19907;-73
2023/04/30 11:35:30;;;;;;;;;;;18.20;87.50;;;;;;4959209;29;19913;-70
2023/04/30 11:37:56;;;;;;;;;;;18.00;87.20;;;;;;4958885;28;19910;-71
2023/04/30 11:40:22;;;;;;;;;;;18.00;87.90;;;;;;4958315;28;19954;-77
2023/04/30 11:42:48;;;;;;;;;;;17.80;88.10;;;;;;4958158;29;19910;-72
2023/04/30 11:45:19;;;;;;;;;;;17.90;87.90;;;;;;4958629;28;19910;-73
2023/04/30 11:47:45;;;;;;;;;;;18.00;88.70;;;;;;4957626;29;20033;-74
2023/04/30 11:50:14;;;;;;;;;;;18.20;87.50;;;;;;4957772;29;20014;-71
2023/04/30 11:52:40;;;;;;;;;;;18.40;87.90;;;;;;4957196;28;19914;-73
2023/04/30 11:55:16;;;;;;;;;;;18.40;86.90;;;;;;4958088;29;19942;-73
2023/04/30 11:57:43;;;;;;;;;;;18.40;86.30;;;;;;4956548;28;19969;-70
2023/04/30 12:00:13;;;;;;;;;;;18.50;86.50;;;;;;4957947;28;19918;-73
2023/04/30 12:02:39;;;;;;;;;;;18.60;87.00;;;;;;4956622;29;19957;-69
2023/04/30 12:05:11;;;;;;;;;;;18.80;86.00;;;;;;4957388;29;20376;-71
2023/04/30 12:07:37;;;;;;;;;;;18.90;85.60;;;;;;4956670;29;19914;-73
2023/04/30 12:10:02;;;;;;;;;;;18.90;84.50;;;;;;4958241;29;19973;-73
2023/04/30 12:12:28;;;;;;;;;;;18.80;85.70;;;;;;4948525;28;19910;-73
2023/04/30 12:14:54;;;;;;;;;;;18.90;85.10;;;;;;4954961;28;19918;-75
2023/04/30 12:17:33;;;;;;;;;;;18.90;83.30;;;;;;4954809;29;19914;-72
2023/04/30 12:19:58;;;;;;;;;;;18.90;83.00;;;;;;4955359;29;19918;-67
2023/04/30 12:22:24;;;;;;;;;;;19.00;83.10;;;;;;4953828;29;19917;-73
2023/04/30 12:24:49;;;;;;;;;;;19.10;82.00;;;;;;4949508;28;19918;-68
2023/04/30 12:27:15;;;;;;;;;;;19.10;83.10;;;;;;4954514;29;19923;-67
2023/04/30 12:29:47;;;;;;;;;;;19.00;82.40;;;;;;4954371;29;20529;-66
2023/04/30 12:32:17;;;;;;;;;;;19.00;84.90;;;;;;4946692;29;19922;-67
2023/04/30 12:34:43;;;;;;;;;;;19.00;82.20;;;;;;4954327;29;19910;-73
2023/04/30 12:37:09;;;;;;;;;;;19.00;83.50;;;;;;4954018;29;19910;-72
2023/04/30 12:39:34;;;;;;;;;;;19.00;82.90;;;;;;4954151;29;19910;-72
2023/04/30 12:42:00;;;;;;;;;;;19.00;81.90;;;;;;4948086;28;20714;-72
2023/04/30 12:44:26;;;;;;;;;;;18.90;82.40;;;;;;4946753;29;19910;-69
2023/04/30 12:46:55;;;;;;;;;;;18.70;83.50;;;;;;4953036;29;19932;-69
2023/04/30 12:49:32;;;;;;;;;;;18.70;83.20;;;;;;4953717;29;19925;-70
2023/04/30 12:51:59;;;;;;;;;;;18.60;82.90;;;;;;4954082;29;20057;-70
2023/04/30 12:54:28;;;;;;;;;;;18.40;84.00;;;;;;4953548;29;19910;-70
2023/04/30 12:57:04;;;;;;;;;;;18.50;85.00;;;;;;4954943;29;19913;-70
2023/04/30 12:59:31;;;;;;;;;;;18.50;84.50;;;;;;4953825;29;19917;-69
2023/04/30 13:02:07;;;;;;;;;;;18.40;84.70;;;;;;4953913;29;20359;-72
2023/04/30 13:04:32;;;;;;;;;;;18.20;84.60;;;;;;4953317;29;19918;-70
2023/04/30 13:06:58;;;;;;;;;;;18.10;85.50;;;;;;4954475;29;20283;-71
2023/04/30 13:09:23;;;;;;;;;;;18.10;85.30;;;;;;4954155;29;19962;-71
2023/04/30 13:11:49;;;;;;;;;;;18.30;85.60;;;;;;4954084;29;19915;-70
2023/04/30 13:14:16;;;;;;;;;;;18.30;85.10;;;;;;4954286;29;20005;-70
2023/04/30 13:16:42;;;;;;;;;;;18.30;86.30;;;;;;4946431;28;19917;-71
2023/04/30 13:19:07;;;;;;;;;;;18.40;85.20;;;;;;4954243;29;19986;-72
2023/04/30 13:21:33;;;;;;;;;;;18.50;84.80;;;;;;4949554;29;19921;-73
2023/04/30 13:23:59;;;;;;;;;;;18.70;85.30;;;;;;4945851;28;20233;-71
2023/04/30 13:26:25;;;;;;;;;;;18.90;84.10;;;;;;4951173;29;19922;-70
2023/04/30 13:28:51;;;;;;;;;;;19.20;82.80;;;;;;4952668;29;20371;-73
2023/04/30 13:31:16;;;;;;;;;;;19.30;81.40;;;;;;4945377;29;19954;-71
2023/04/30 13:33:42;;;;;;;;;;;19.40;81.80;;;;;;4952463;29;20502;-72
2023/04/30 13:36:08;;;;;;;;;;;19.50;80.10;;;;;;4953031;29;19942;-71
2023/04/30 13:38:33;;;;;;;;;;;19.60;80.40;;;;;;4952199;29;19937;-72
2023/04/30 13:40:59;;;;;;;;;;;19.70;80.10;;;;;;4953260;29;20001;-73
2023/04/30 13:43:24;;;;;;;;;;;19.80;79.20;;;;;;4952349;29;19926;-78
2023/04/30 13:45:50;;;;;;;;;;;19.80;80.40;;;;;;4953052;29;19918;-74
2023/04/30 13:48:15;;;;;;;;;;;19.80;80.10;;;;;;4953766;29;19911;-73
2023/04/30 13:50:41;;;;;;;;;;;19.90;80.50;;;;;;4952786;29;19926;-73
2023/04/30 13:53:06;;;;;;;;;;;20.00;79.20;;;;;;4953263;29;19911;-71
2023/04/30 13:55:32;;;;;;;;;;;19.80;78.50;;;;;;4952962;29;20021;-69
2023/04/30 13:57:57;;;;;;;;;;;19.80;79.50;;;;;;4948463;28;19914;-71
2023/04/30 14:00:23;;;;;;;;;;;19.80;80.60;;;;;;4951232;29;19914;-71
2023/04/30 14:02:48;;;;;;;;;;;19.20;78.90;;;;;;4952199;29;20367;-68
2023/04/30 14:05:14;;;;;;;;;;;18.90;80.40;;;;;;4953172;29;20372;-68
2023/04/30 14:07:40;;;;;;;;;;;18.90;80.60;;;;;;4940890;28;20675;-71
2023/04/30 14:10:06;;;;;;;;;;;19.00;81.40;;;;;;4953319;29;19970;-75
2023/04/30 14:12:31;;;;;;;;;;;19.10;81.40;;;;;;4951812;29;19977;-71
2023/04/30 14:14:57;;;;;;;;;;;19.10;80.10;;;;;;4953143;29;19910;-75
2023/04/30 14:17:23;;;;;;;;;;;19.10;80.00;;;;;;4952785;29;20331;-80
2023/04/30 14:19:49;;;;;;;;;;;19.00;80.40;;;;;;4935989;29;19964;-77